Family Matters — WDI2231 — position and weather

sailwx.info

Track history (hours):
 
Tides and Currents Weather Stations Pressure Air Temp Water Temp Dewpoint Dewpoint Depression Visibility Wind Speed Wind Dir Waves Ship Positions

Family Matters

Owner: Tightline charters of sarasota inc., sarasota, FL. More information available from US FCC via Universal Licensing System and Coast Guard Vessel Documentation Center.

Last reported at 2017-Dec-11 14:36 UTC. Time now 2017-Dec-13 19:00 UTC.
Position N 26°47' W 080°02'.

Length 19 m.

Type: Pleasure craft. MMSI: 367676030.

Date/timePositionNaut miles runAvg speedWind from/ knotsBaromVisibWave heightAir tempDewpointWater temp
2017-Dec-11 14:36N 26°47' W 080°02'0 0.0
2017-Dec-11 14:21N 26°47' W 080°02'0 0.0
2017-Dec-11 14:00N 26°47' W 080°02'0 0.0
2017-Dec-11 13:30N 26°47' W 080°02'0 0.0
2017-Dec-11 13:00N 26°47' W 080°02'0 0.0
2017-Dec-11 12:24N 26°47' W 080°02'0 0.0
2017-Dec-11 11:59N 26°47' W 080°02'0 0.0
2017-Dec-11 11:29N 26°47' W 080°02'0 0.0
2017-Dec-11 10:59N 26°47' W 080°02'0 0.0
2017-Dec-11 10:23N 26°47' W 080°02'0 0.0
2017-Dec-11 09:56N 26°47' W 080°02'0 0.0
2017-Dec-11 09:29N 26°47' W 080°02'0 0.0
2017-Dec-11 08:59N 26°47' W 080°02'0 0.0
2017-Dec-11 08:29N 26°47' W 080°02'0 0.0
2017-Dec-11 07:59N 26°47' W 080°02'0 0.0
2017-Dec-11 07:26N 26°47' W 080°02'0 0.0
2017-Dec-11 06:56N 26°47' W 080°02'0 0.0
2017-Dec-11 06:22N 26°47' W 080°02'0 0.0
2017-Dec-11 05:58N 26°47' W 080°02'0 0.0
2017-Dec-11 05:22N 26°47' W 080°02'0 0.0
2017-Dec-11 04:49N 26°47' W 080°02'0 0.0
2017-Dec-11 04:28N 26°47' W 080°02'0 0.0
2017-Dec-11 03:52N 26°47' W 080°02'0 0.0
2017-Dec-11 03:28N 26°47' W 080°02'0 0.0
2017-Dec-11 02:58N 26°47' W 080°02'0 0.0
2017-Dec-11 02:28N 26°47' W 080°02'0 0.0
2017-Dec-11 01:43N 26°47' W 080°02'0 0.0
2017-Dec-11 01:28N 26°47' W 080°02'0 0.0
2017-Dec-11 00:55N 26°47' W 080°02'0 0.0
2017-Dec-10 22:40N 26°47' W 080°02'0 0.0
2017-Dec-10 22:25N 26°47' W 080°02'0 0.0
2017-Dec-10 21:58N 26°47' W 080°02'0 0.0
2017-Dec-10 21:19N 26°47' W 080°02'0 0.0
2017-Dec-10 20:58N 26°47' W 080°02'0 0.5
2017-Dec-10 20:29N 26°47' W 080°02'612.7
2017-Dec-10 19:58N 26°52' W 079°59'1 1.5
2017-Dec-10 19:25N 26°53' W 079°59'1 1.5
2017-Dec-10 19:00N 26°54' W 079°59'1 1.9
2017-Dec-10 18:29N 26°53' W 079°59'1 1.2
2017-Dec-10 17:58N 26°53' W 079°59'1 1.4
2017-Dec-10 17:26N 26°54' W 079°59'1 1.3
2017-Dec-10 16:59N 26°55' W 079°59'0 1.0
2017-Dec-10 16:29N 26°55' W 079°59'2 3.2
2017-Dec-10 15:59N 26°54' W 079°59'1 1.1
2017-Dec-10 15:23N 26°54' W 079°59'1 0.8
2017-Dec-10 14:43N 26°55' W 079°59'0 1.0
2017-Dec-10 14:29N 26°55' W 079°59'1 2.2
2017-Dec-10 13:58N 26°54' W 079°59'1 1.2
2017-Dec-10 13:30N 26°54' W 079°59'1 1.0
2017-Dec-10 13:00N 26°55' W 079°59'1 1.3
2017-Dec-10 12:30N 26°56' W 079°59'1 1.2
2017-Dec-10 11:55N 26°56' W 079°59'4 8.2
2017-Dec-10 11:29N 26°53' W 079°60'611.1
2017-Dec-10 10:55N 26°47' W 080°02'0 0.0
2017-Dec-10 10:28N 26°47' W 080°02'0 0.0
2017-Dec-10 09:46N 26°47' W 080°02'0 0.0
2017-Dec-10 09:22N 26°47' W 080°02'0 0.0
2017-Dec-10 08:55N 26°47' W 080°02'0 0.0
2017-Dec-10 08:25N 26°47' W 080°02'0 0.0
2017-Dec-10 07:55N 26°47' W 080°02'0 0.0
2017-Dec-10 07:16N 26°47' W 080°02'0 0.0
2017-Dec-10 06:58N 26°47' W 080°02'0 0.0
2017-Dec-10 06:28N 26°47' W 080°02'0 0.0
2017-Dec-10 05:55N 26°47' W 080°02'0 0.0
2017-Dec-10 05:25N 26°47' W 080°02'0 0.0
2017-Dec-10 04:55N 26°47' W 080°02'0 0.0
2017-Dec-10 04:19N 26°47' W 080°02'0 0.0
2017-Dec-10 03:55N 26°47' W 080°02'0 0.0
2017-Dec-10 03:25N 26°47' W 080°02'0 0.0
2017-Dec-10 02:55N 26°47' W 080°02'0 0.0
2017-Dec-10 02:22N 26°47' W 080°02'0 0.0
2017-Dec-10 01:58N 26°47' W 080°02'0 0.0
2017-Dec-10 01:28N 26°47' W 080°02'0 0.0
2017-Dec-10 00:55N 26°47' W 080°02'0 0.0
2017-Dec-09 23:31N 26°47' W 080°02'0 0.0
2017-Dec-09 23:19N 26°47' W 080°02'0 0.0
2017-Dec-09 22:52N 26°47' W 080°02'0 0.0
2017-Dec-09 22:28N 26°47' W 080°02'0 0.0
2017-Dec-09 21:58N 26°47' W 080°02'0 0.0
2017-Dec-09 21:25N 26°47' W 080°02'0 0.0
2017-Dec-09 20:55N 26°47' W 080°02'0 0.0
2017-Dec-09 19:49N 26°47' W 080°02'0 0.0
2017-Dec-09 19:16N 26°47' W 080°02'0 0.0
2017-Dec-09 18:58N 26°47' W 080°02'0 0.0
2017-Dec-09 18:28N 26°47' W 080°02'0 0.0
2017-Dec-09 17:52N 26°47' W 080°02'0 0.0
2017-Dec-09 17:07N 26°47' W 080°02'0 0.0
2017-Dec-09 15:58N 26°47' W 080°02'0 0.0
2017-Dec-09 15:28N 26°47' W 080°02'0 0.0
2017-Dec-09 14:43N 26°47' W 080°02'0 0.0
2017-Dec-09 14:22N 26°47' W 080°02'0 0.0
2017-Dec-09 13:25N 26°47' W 080°02'0 0.0
2017-Dec-09 12:55N 26°47' W 080°02'0 0.0
2017-Dec-09 12:19N 26°47' W 080°02'0 0.0
2017-Dec-09 11:43N 26°47' W 080°02'0 0.0
2017-Dec-09 11:22N 26°47' W 080°02'0 0.0
2017-Dec-09 10:58N 26°47' W 080°02'0 0.0
2017-Dec-09 10:19N 26°47' W 080°02'0 0.0
2017-Dec-09 09:58N 26°47' W 080°02'0 0.0
2017-Dec-09 09:01N 26°47' W 080°02'0 0.0
2017-Dec-09 08:58N 26°47' W 080°02'0 0.0
2017-Dec-09 08:28N 26°47' W 080°02'0 0.0
2017-Dec-09 07:52N 26°47' W 080°02'0 0.0
2017-Dec-09 07:28N 26°47' W 080°02'0 0.0
2017-Dec-09 06:55N 26°47' W 080°02'0 0.0
2017-Dec-09 06:16N 26°47' W 080°02'0 0.0
2017-Dec-09 05:58N 26°47' W 080°02'0 0.0
2017-Dec-09 04:22N 26°47' W 080°02'0 0.0
2017-Dec-09 03:43N 26°47' W 080°02'0 0.0
2017-Dec-09 03:28N 26°47' W 080°02'0 0.0
2017-Dec-09 02:52N 26°47' W 080°02'0 0.0
2017-Dec-09 02:16N 26°47' W 080°02'0 0.0
2017-Dec-09 01:58N 26°47' W 080°02'0 0.0
2017-Dec-09 01:28N 26°47' W 080°02'0 0.0
2017-Dec-09 00:55N 26°47' W 080°02'0 0.0
2017-Dec-09 00:25N 26°47' W 080°02'0 0.0
2017-Dec-08 23:49N 26°47' W 080°02'0 0.0
2017-Dec-08 23:28N 26°47' W 080°02'0 0.0
2017-Dec-08 22:43N 26°47' W 080°02'0 0.0
2017-Dec-08 22:22N 26°47' W 080°02'0 0.0
2017-Dec-08 21:58N 26°47' W 080°02'2 3.6
2017-Dec-08 21:29N 26°48' W 080°01'1119.3
2017-Dec-08 20:55N 26°59' W 079°58'1 1.2
2017-Dec-08 20:30N 26°58' W 079°59'1 2.6
2017-Dec-08 20:00N 26°57' W 079°59'0 0.5
2017-Dec-08 19:29N 26°57' W 079°59'3 6.8
2017-Dec-08 19:00N 26°54' W 079°59'1 1.6
2017-Dec-08 18:30N 26°53' W 079°59'1 1.6
2017-Dec-08 18:00N 26°52' W 079°60'2 3.8
2017-Dec-08 17:30N 26°54' W 079°59'1 1.8
2017-Dec-08 17:00N 26°53' W 079°59'1 2.4
2017-Dec-08 16:30N 26°54' W 079°59'1 1.2
2017-Dec-08 16:00N 26°54' W 079°59'1 1.4
2017-Dec-08 15:29N 26°53' W 079°59'0 0.4
2017-Dec-08 15:00N 26°53' W 079°59'1 2.2
2017-Dec-08 14:30N 26°54' W 079°59'1 1.7
2017-Dec-08 13:58N 26°55' W 079°59'1 1.4
2017-Dec-08 13:30N 26°54' W 079°59'1 1.7
2017-Dec-08 13:00N 26°53' W 079°59'2 3.5
2017-Dec-08 12:28N 26°52' W 079°59'612.5
2017-Dec-08 12:00N 26°47' W 080°02'0 0.7
2017-Dec-08 11:30N 26°47' W 080°02'0 0.0
2017-Dec-08 10:48N 26°47' W 080°02'0 0.0
2017-Dec-08 10:30N 26°47' W 080°02'0 0.0
2017-Dec-08 10:00N 26°47' W 080°02'0 0.0
2017-Dec-08 09:27N 26°47' W 080°02'0 0.0
2017-Dec-08 09:00N 26°47' W 080°02'0 0.0
2017-Dec-08 08:30N 26°47' W 080°02'0 0.0
2017-Dec-08 07:47N 26°47' W 080°02'0 0.0
2017-Dec-08 07:27N 26°47' W 080°02'0 0.0
2017-Dec-08 07:00N 26°47' W 080°02'0 0.0
2017-Dec-08 06:12N 26°47' W 080°02'0 0.0
2017-Dec-08 05:45N 26°47' W 080°02'0 0.0
2017-Dec-08 05:30N 26°47' W 080°02'0 0.0
2017-Dec-08 05:00N 26°47' W 080°02'0 0.0
2017-Dec-08 04:30N 26°47' W 080°02'0 0.0
2017-Dec-08 04:00N 26°47' W 080°02'0 0.0
2017-Dec-08 03:27N 26°47' W 080°02'0 0.0
2017-Dec-08 02:48N 26°47' W 080°02'0 0.0
2017-Dec-08 02:30N 26°47' W 080°02'0 0.0
2017-Dec-08 01:54N 26°47' W 080°02'0 0.0
2017-Dec-08 01:30N 26°47' W 080°02'0 0.0
2017-Dec-08 01:00N 26°47' W 080°02'0 0.0
2017-Dec-08 00:15N 26°47' W 080°02'0 0.0
2017-Dec-08 00:00N 26°47' W 080°02'0 0.0
2017-Dec-07 23:06N 26°47' W 080°02'0 0.0
2017-Dec-07 22:45N 26°47' W 080°02'0 0.0
2017-Dec-07 22:15N 26°47' W 080°02'0 0.0
2017-Dec-07 21:57N 26°47' W 080°02'0 0.0
2017-Dec-07 21:30N 26°47' W 080°02'0 0.5
2017-Dec-07 20:59N 26°47' W 080°02'917.3
2017-Dec-07 20:30N 26°55' W 079°59'1 2.2
2017-Dec-07 19:59N 26°53' W 079°59'3 6.6
2017-Dec-07 19:28N 26°50' W 079°59'12 3.9
2017-Dec-07 16:18N 26°38' W 080°01'725.2
2017-Dec-07 16:00N 26°45' W 080°01'2 3.4
2017-Dec-07 15:23N 26°47' W 080°02'0 0.0
2017-Dec-07 14:59N 26°47' W 080°02'0 0.0
2017-Dec-07 14:29N 26°47' W 080°02'0 0.0
2017-Dec-07 13:47N 26°47' W 080°02'0 0.0
2017-Dec-07 13:26N 26°47' W 080°02'0 0.0
2017-Dec-07 12:47N 26°47' W 080°02'0 0.0
2017-Dec-07 12:29N 26°47' W 080°02'0 0.0
2017-Dec-07 11:44N 26°47' W 080°02'0 0.0
2017-Dec-07 11:29N 26°47' W 080°02'0 0.0
2017-Dec-07 10:59N 26°47' W 080°02'0 0.0
2017-Dec-07 10:29N 26°47' W 080°02'0 0.0
2017-Dec-07 09:59N 26°47' W 080°02'0 0.0
2017-Dec-07 09:29N 26°47' W 080°02'0 0.0
2017-Dec-07 08:59N 26°47' W 080°02'0 0.0
2017-Dec-07 08:26N 26°47' W 080°02'0 0.0
2017-Dec-07 07:59N 26°47' W 080°02'0 0.0
2017-Dec-07 07:02N 26°47' W 080°02'0 0.0
2017-Dec-07 06:41N 26°47' W 080°02'0 0.0
2017-Dec-07 06:26N 26°47' W 080°02'0 0.0
2017-Dec-07 05:59N 26°47' W 080°02'0 0.0
2017-Dec-07 05:26N 26°47' W 080°02'0 0.0
2017-Dec-07 04:59N 26°47' W 080°02'0 0.0
2017-Dec-07 04:08N 26°47' W 080°02'0 0.0
2017-Dec-07 03:59N 26°47' W 080°02'0 0.0
2017-Dec-07 03:17N 26°47' W 080°02'0 0.0
2017-Dec-07 02:56N 26°47' W 080°02'0 0.0
2017-Dec-07 02:23N 26°47' W 080°02'0 0.0
2017-Dec-07 01:47N 26°47' W 080°02'0 0.0
2017-Dec-07 01:23N 26°47' W 080°02'0 0.0
2017-Dec-07 00:59N 26°47' W 080°02'0 0.0
2017-Dec-07 00:26N 26°47' W 080°02'0 0.0
2017-Dec-06 23:53N 26°47' W 080°02'0 0.0
2017-Dec-06 23:26N 26°47' W 080°02'0 0.0
2017-Dec-06 22:59N 26°47' W 080°02'0 0.0
2017-Dec-06 22:29N 26°47' W 080°02'0 0.0
2017-Dec-06 21:56N 26°47' W 080°02'0 0.0
2017-Dec-06 21:29N 26°47' W 080°02'0 0.0
2017-Dec-06 20:44N 26°47' W 080°02'  
2017-Dec-04 10:09N 26°47' W 080°02'0 0.0
2017-Dec-04 09:57N 26°47' W 080°02'0 0.0
2017-Dec-04 09:27N 26°47' W 080°02'0 0.0
2017-Dec-04 08:48N 26°47' W 080°02'0 0.0
2017-Dec-04 08:12N 26°47' W 080°02'0 0.0
2017-Dec-04 07:33N 26°47' W 080°02'0 0.0
2017-Dec-04 07:27N 26°47' W 080°02'0 0.0
2017-Dec-04 06:57N 26°47' W 080°02'0 0.0
2017-Dec-04 06:30N 26°47' W 080°02'0 0.0
2017-Dec-04 05:54N 26°47' W 080°02'0 0.0
2017-Dec-04 05:30N 26°47' W 080°02'0 0.0
2017-Dec-04 04:57N 26°47' W 080°02'0 0.0
2017-Dec-04 04:24N 26°47' W 080°02'0 0.0
2017-Dec-04 04:00N 26°47' W 080°02'0 0.0
2017-Dec-04 03:27N 26°47' W 080°02'0 0.0
2017-Dec-04 03:00N 26°47' W 080°02'0 0.0
2017-Dec-04 02:30N 26°47' W 080°02'0 0.0
2017-Dec-04 01:54N 26°47' W 080°02'0 0.0
2017-Dec-04 01:30N 26°47' W 080°02'0 0.0
2017-Dec-03 13:39N 26°47' W 080°02'0 0.0
2017-Dec-03 13:09N 26°47' W 080°02'0 0.0
2017-Dec-03 13:00N 26°47' W 080°02'0 0.0
2017-Dec-03 12:30N 26°47' W 080°02'0 0.0
2017-Dec-03 11:54N 26°47' W 080°02'0 0.0
2017-Dec-03 11:30N 26°47' W 080°02'0 0.0
2017-Dec-03 10:48N 26°47' W 080°02'0 0.0
2017-Dec-03 10:30N 26°47' W 080°02'0 0.0
2017-Dec-03 10:00N 26°47' W 080°02'0 0.0
2017-Dec-03 09:30N 26°47' W 080°02'0 0.0
2017-Dec-03 08:57N 26°47' W 080°02'0 0.0
2017-Dec-03 08:30N 26°47' W 080°02'0 0.0
2017-Dec-03 07:48N 26°47' W 080°02'0 0.0
2017-Dec-03 07:27N 26°47' W 080°02'0 0.0
2017-Dec-03 07:00N 26°47' W 080°02'0 0.0
2017-Dec-03 06:30N 26°47' W 080°02'0 0.0
2017-Dec-03 05:45N 26°47' W 080°02'0 0.0
2017-Dec-03 05:30N 26°47' W 080°02'0 0.0
2017-Dec-03 04:57N 26°47' W 080°02'0 0.0
2017-Dec-03 04:27N 26°47' W 080°02'0 0.0
2017-Dec-03 04:00N 26°47' W 080°02'0 0.0
2017-Dec-02 22:03N 26°47' W 080°02'0 0.0
2017-Dec-02 21:45N 26°47' W 080°02'0 0.0
2017-Dec-02 21:06N 26°47' W 080°02'0 0.0
2017-Dec-02 20:54N 26°47' W 080°02'0 0.0
2017-Dec-02 20:30N 26°47' W 080°02'0 0.0
2017-Dec-02 19:48N 26°47' W 080°02'0 0.0
2017-Dec-02 19:30N 26°47' W 080°02'0 0.0
2017-Dec-02 18:57N 26°47' W 080°02'0 0.0
2017-Dec-02 18:15N 26°47' W 080°02'0 0.0
2017-Dec-02 18:00N 26°47' W 080°02'0 0.0
2017-Dec-02 17:30N 26°47' W 080°02'0 0.0
2017-Dec-02 17:00N 26°47' W 080°02'0 0.0
2017-Dec-02 16:30N 26°47' W 080°02'0 0.0
2017-Dec-02 16:00N 26°47' W 080°02'0 0.0
2017-Dec-02 15:30N 26°47' W 080°02'0 0.0
2017-Dec-02 14:54N 26°47' W 080°02'0 0.0
2017-Dec-02 14:27N 26°47' W 080°02'0 0.0
2017-Dec-02 14:00N 26°47' W 080°02'0 0.0
2017-Dec-02 13:18N 26°47' W 080°02'0 0.0
2017-Dec-02 13:00N 26°47' W 080°02'0 0.0
2017-Dec-02 12:24N 26°47' W 080°02'0 0.0
2017-Dec-02 11:57N 26°47' W 080°02'0 0.0
2017-Dec-02 11:30N 26°47' W 080°02'0 0.0
2017-Dec-02 10:54N 26°47' W 080°02'0 0.0
2017-Dec-02 10:30N 26°47' W 080°02'0 0.0
2017-Dec-02 09:54N 26°47' W 080°02'0 0.0
2017-Dec-02 09:27N 26°47' W 080°02'0 0.0
2017-Dec-02 08:57N 26°47' W 080°02'0 0.0
2017-Dec-02 08:30N 26°47' W 080°02'0 0.0
2017-Dec-02 08:00N 26°47' W 080°02'0 0.0
2017-Dec-02 07:27N 26°47' W 080°02'0 0.0
2017-Dec-02 07:00N 26°47' W 080°02'0 0.0
2017-Dec-02 06:30N 26°47' W 080°02'0 0.0
2017-Dec-02 06:00N 26°47' W 080°02'0 0.0
2017-Dec-02 05:24N 26°47' W 080°02'0 0.0
2017-Dec-02 05:00N 26°47' W 080°02'0 0.0
2017-Dec-02 04:30N 26°47' W 080°02'0 0.0
2017-Dec-02 03:48N 26°47' W 080°02'0 0.0
2017-Dec-02 03:30N 26°47' W 080°02'0 0.0
2017-Dec-02 03:00N 26°47' W 080°02'0 0.0
2017-Dec-02 02:18N 26°47' W 080°02'0 0.0
2017-Dec-02 01:54N 26°47' W 080°02'0 0.0
2017-Dec-02 01:30N 26°47' W 080°02'0 0.0
2017-Dec-02 00:57N 26°47' W 080°02'0 0.0
2017-Dec-02 00:15N 26°47' W 080°02'0 0.0
2017-Dec-02 00:00N 26°47' W 080°02'0 0.0
2017-Dec-01 23:30N 26°47' W 080°02'0 0.0
2017-Dec-01 22:54N 26°47' W 080°02'0 0.0
2017-Dec-01 22:30N 26°47' W 080°02'0 0.0
2017-Dec-01 22:00N 26°47' W 080°02'0 0.0
2017-Dec-01 21:30N 26°47' W 080°02'0 0.0
2017-Dec-01 20:33N 26°47' W 080°02'0 0.0
2017-Dec-01 20:30N 26°47' W 080°02'0 0.0
2017-Dec-01 20:00N 26°47' W 080°02'0 0.0
2017-Dec-01 19:27N 26°47' W 080°02'0 0.0
2017-Dec-01 19:00N 26°47' W 080°02'0 0.0
2017-Dec-01 18:30N 26°47' W 080°02'0 0.0
2017-Dec-01 18:00N 26°47' W 080°02'0 0.0
2017-Dec-01 17:18N 26°47' W 080°02'0 0.0
2017-Dec-01 16:48N 26°47' W 080°02'0 0.0
2017-Dec-01 16:15N 26°47' W 080°02'0 0.0
2017-Dec-01 15:57N 26°47' W 080°02'0 0.0
2017-Dec-01 15:30N 26°47' W 080°02'0 0.0
2017-Dec-01 14:48N 26°47' W 080°02'  
Track history (hours):
 
Tides and Currents Weather Stations Pressure Air Temp Water Temp Dewpoint Dewpoint Depression Visibility Wind Speed Wind Dir Waves Ship Positions

Family Matters

Owner: Tightline charters of sarasota inc., sarasota, FL. More information available from US FCC via Universal Licensing System and Coast Guard Vessel Documentation Center.

Last reported at 2017-Dec-11 14:36 UTC. Time now 2017-Dec-13 19:00 UTC.
Position N 26°47' W 080°02'.

Length 19 m.

Type: Pleasure craft. MMSI: 367676030.

Date/timePositionNaut miles runAvg speedWind from/ knotsBaromVisibWave heightAir tempDewpointWater temp
2017-Dec-11 14:36N 26°47' W 080°02'0 0.0
2017-Dec-11 14:21N 26°47' W 080°02'0 0.0
2017-Dec-11 14:00N 26°47' W 080°02'0 0.0
2017-Dec-11 13:30N 26°47' W 080°02'0 0.0
2017-Dec-11 13:00N 26°47' W 080°02'0 0.0
2017-Dec-11 12:24N 26°47' W 080°02'0 0.0
2017-Dec-11 11:59N 26°47' W 080°02'0 0.0
2017-Dec-11 11:29N 26°47' W 080°02'0 0.0
2017-Dec-11 10:59N 26°47' W 080°02'0 0.0
2017-Dec-11 10:23N 26°47' W 080°02'0 0.0
2017-Dec-11 09:56N 26°47' W 080°02'0 0.0
2017-Dec-11 09:29N 26°47' W 080°02'0 0.0
2017-Dec-11 08:59N 26°47' W 080°02'0 0.0
2017-Dec-11 08:29N 26°47' W 080°02'0 0.0
2017-Dec-11 07:59N 26°47' W 080°02'0 0.0
2017-Dec-11 07:26N 26°47' W 080°02'0 0.0
2017-Dec-11 06:56N 26°47' W 080°02'0 0.0
2017-Dec-11 06:22N 26°47' W 080°02'0 0.0
2017-Dec-11 05:58N 26°47' W 080°02'0 0.0
2017-Dec-11 05:22N 26°47' W 080°02'0 0.0
2017-Dec-11 04:49N 26°47' W 080°02'0 0.0
2017-Dec-11 04:28N 26°47' W 080°02'0 0.0
2017-Dec-11 03:52N 26°47' W 080°02'0 0.0
2017-Dec-11 03:28N 26°47' W 080°02'0 0.0
2017-Dec-11 02:58N 26°47' W 080°02'0 0.0
2017-Dec-11 02:28N 26°47' W 080°02'0 0.0
2017-Dec-11 01:43N 26°47' W 080°02'0 0.0
2017-Dec-11 01:28N 26°47' W 080°02'0 0.0
2017-Dec-11 00:55N 26°47' W 080°02'0 0.0
2017-Dec-10 22:40N 26°47' W 080°02'0 0.0
2017-Dec-10 22:25N 26°47' W 080°02'0 0.0
2017-Dec-10 21:58N 26°47' W 080°02'0 0.0
2017-Dec-10 21:19N 26°47' W 080°02'0 0.0
2017-Dec-10 20:58N 26°47' W 080°02'0 0.5
2017-Dec-10 20:29N 26°47' W 080°02'612.7
2017-Dec-10 19:58N 26°52' W 079°59'1 1.5
2017-Dec-10 19:25N 26°53' W 079°59'1 1.5
2017-Dec-10 19:00N 26°54' W 079°59'1 1.9
2017-Dec-10 18:29N 26°53' W 079°59'1 1.2
2017-Dec-10 17:58N 26°53' W 079°59'1 1.4
2017-Dec-10 17:26N 26°54' W 079°59'1 1.3
2017-Dec-10 16:59N 26°55' W 079°59'0 1.0
2017-Dec-10 16:29N 26°55' W 079°59'2 3.2
2017-Dec-10 15:59N 26°54' W 079°59'1 1.1
2017-Dec-10 15:23N 26°54' W 079°59'1 0.8
2017-Dec-10 14:43N 26°55' W 079°59'0 1.0
2017-Dec-10 14:29N 26°55' W 079°59'1 2.2
2017-Dec-10 13:58N 26°54' W 079°59'1 1.2
2017-Dec-10 13:30N 26°54' W 079°59'1 1.0
2017-Dec-10 13:00N 26°55' W 079°59'1 1.3
2017-Dec-10 12:30N 26°56' W 079°59'1 1.2
2017-Dec-10 11:55N 26°56' W 079°59'4 8.2
2017-Dec-10 11:29N 26°53' W 079°60'611.1
2017-Dec-10 10:55N 26°47' W 080°02'0 0.0
2017-Dec-10 10:28N 26°47' W 080°02'0 0.0
2017-Dec-10 09:46N 26°47' W 080°02'0 0.0
2017-Dec-10 09:22N 26°47' W 080°02'0 0.0
2017-Dec-10 08:55N 26°47' W 080°02'0 0.0
2017-Dec-10 08:25N 26°47' W 080°02'0 0.0
2017-Dec-10 07:55N 26°47' W 080°02'0 0.0
2017-Dec-10 07:16N 26°47' W 080°02'0 0.0
2017-Dec-10 06:58N 26°47' W 080°02'0 0.0
2017-Dec-10 06:28N 26°47' W 080°02'0 0.0
2017-Dec-10 05:55N 26°47' W 080°02'0 0.0
2017-Dec-10 05:25N 26°47' W 080°02'0 0.0
2017-Dec-10 04:55N 26°47' W 080°02'0 0.0
2017-Dec-10 04:19N 26°47' W 080°02'0 0.0
2017-Dec-10 03:55N 26°47' W 080°02'0 0.0
2017-Dec-10 03:25N 26°47' W 080°02'0 0.0
2017-Dec-10 02:55N 26°47' W 080°02'0 0.0
2017-Dec-10 02:22N 26°47' W 080°02'0 0.0
2017-Dec-10 01:58N 26°47' W 080°02'0 0.0
2017-Dec-10 01:28N 26°47' W 080°02'0 0.0
2017-Dec-10 00:55N 26°47' W 080°02'0 0.0
2017-Dec-09 23:31N 26°47' W 080°02'0 0.0
2017-Dec-09 23:19N 26°47' W 080°02'0 0.0
2017-Dec-09 22:52N 26°47' W 080°02'0 0.0
2017-Dec-09 22:28N 26°47' W 080°02'0 0.0
2017-Dec-09 21:58N 26°47' W 080°02'0 0.0
2017-Dec-09 21:25N 26°47' W 080°02'0 0.0
2017-Dec-09 20:55N 26°47' W 080°02'0 0.0
2017-Dec-09 19:49N 26°47' W 080°02'0 0.0
2017-Dec-09 19:16N 26°47' W 080°02'0 0.0
2017-Dec-09 18:58N 26°47' W 080°02'0 0.0
2017-Dec-09 18:28N 26°47' W 080°02'0 0.0
2017-Dec-09 17:52N 26°47' W 080°02'0 0.0
2017-Dec-09 17:07N 26°47' W 080°02'0 0.0
2017-Dec-09 15:58N 26°47' W 080°02'0 0.0
2017-Dec-09 15:28N 26°47' W 080°02'0 0.0
2017-Dec-09 14:43N 26°47' W 080°02'0 0.0
2017-Dec-09 14:22N 26°47' W 080°02'0 0.0
2017-Dec-09 13:25N 26°47' W 080°02'0 0.0
2017-Dec-09 12:55N 26°47' W 080°02'0 0.0
2017-Dec-09 12:19N 26°47' W 080°02'0 0.0
2017-Dec-09 11:43N 26°47' W 080°02'0 0.0
2017-Dec-09 11:22N 26°47' W 080°02'0 0.0
2017-Dec-09 10:58N 26°47' W 080°02'0 0.0
2017-Dec-09 10:19N 26°47' W 080°02'0 0.0
2017-Dec-09 09:58N 26°47' W 080°02'0 0.0
2017-Dec-09 09:01N 26°47' W 080°02'0 0.0
2017-Dec-09 08:58N 26°47' W 080°02'0 0.0
2017-Dec-09 08:28N 26°47' W 080°02'0 0.0
2017-Dec-09 07:52N 26°47' W 080°02'0 0.0
2017-Dec-09 07:28N 26°47' W 080°02'0 0.0
2017-Dec-09 06:55N 26°47' W 080°02'0 0.0
2017-Dec-09 06:16N 26°47' W 080°02'0 0.0
2017-Dec-09 05:58N 26°47' W 080°02'0 0.0
2017-Dec-09 04:22N 26°47' W 080°02'0 0.0
2017-Dec-09 03:43N 26°47' W 080°02'0 0.0
2017-Dec-09 03:28N 26°47' W 080°02'0 0.0
2017-Dec-09 02:52N 26°47' W 080°02'0 0.0
2017-Dec-09 02:16N 26°47' W 080°02'0 0.0
2017-Dec-09 01:58N 26°47' W 080°02'0 0.0
2017-Dec-09 01:28N 26°47' W 080°02'0 0.0
2017-Dec-09 00:55N 26°47' W 080°02'0 0.0
2017-Dec-09 00:25N 26°47' W 080°02'0 0.0
2017-Dec-08 23:49N 26°47' W 080°02'0 0.0
2017-Dec-08 23:28N 26°47' W 080°02'0 0.0
2017-Dec-08 22:43N 26°47' W 080°02'0 0.0
2017-Dec-08 22:22N 26°47' W 080°02'0 0.0
2017-Dec-08 21:58N 26°47' W 080°02'2 3.6
2017-Dec-08 21:29N 26°48' W 080°01'1119.3
2017-Dec-08 20:55N 26°59' W 079°58'1 1.2
2017-Dec-08 20:30N 26°58' W 079°59'1 2.6
2017-Dec-08 20:00N 26°57' W 079°59'0 0.5
2017-Dec-08 19:29N 26°57' W 079°59'3 6.8
2017-Dec-08 19:00N 26°54' W 079°59'1 1.6
2017-Dec-08 18:30N 26°53' W 079°59'1 1.6
2017-Dec-08 18:00N 26°52' W 079°60'2 3.8
2017-Dec-08 17:30N 26°54' W 079°59'1 1.8
2017-Dec-08 17:00N 26°53' W 079°59'1 2.4
2017-Dec-08 16:30N 26°54' W 079°59'1 1.2
2017-Dec-08 16:00N 26°54' W 079°59'1 1.4
2017-Dec-08 15:29N 26°53' W 079°59'0 0.4
2017-Dec-08 15:00N 26°53' W 079°59'1 2.2
2017-Dec-08 14:30N 26°54' W 079°59'1 1.7
2017-Dec-08 13:58N 26°55' W 079°59'1 1.4
2017-Dec-08 13:30N 26°54' W 079°59'1 1.7
2017-Dec-08 13:00N 26°53' W 079°59'2 3.5
2017-Dec-08 12:28N 26°52' W 079°59'612.5
2017-Dec-08 12:00N 26°47' W 080°02'0 0.7
2017-Dec-08 11:30N 26°47' W 080°02'0 0.0
2017-Dec-08 10:48N 26°47' W 080°02'0 0.0
2017-Dec-08 10:30N 26°47' W 080°02'0 0.0
2017-Dec-08 10:00N 26°47' W 080°02'0 0.0
2017-Dec-08 09:27N 26°47' W 080°02'0 0.0
2017-Dec-08 09:00N 26°47' W 080°02'0 0.0
2017-Dec-08 08:30N 26°47' W 080°02'0 0.0
2017-Dec-08 07:47N 26°47' W 080°02'0 0.0
2017-Dec-08 07:27N 26°47' W 080°02'0 0.0
2017-Dec-08 07:00N 26°47' W 080°02'0 0.0
2017-Dec-08 06:12N 26°47' W 080°02'0 0.0
2017-Dec-08 05:45N 26°47' W 080°02'0 0.0
2017-Dec-08 05:30N 26°47' W 080°02'0 0.0
2017-Dec-08 05:00N 26°47' W 080°02'0 0.0
2017-Dec-08 04:30N 26°47' W 080°02'0 0.0
2017-Dec-08 04:00N 26°47' W 080°02'0 0.0
2017-Dec-08 03:27N 26°47' W 080°02'0 0.0
2017-Dec-08 02:48N 26°47' W 080°02'0 0.0
2017-Dec-08 02:30N 26°47' W 080°02'0 0.0
2017-Dec-08 01:54N 26°47' W 080°02'0 0.0
2017-Dec-08 01:30N 26°47' W 080°02'0 0.0
2017-Dec-08 01:00N 26°47' W 080°02'0 0.0
2017-Dec-08 00:15N 26°47' W 080°02'0 0.0
2017-Dec-08 00:00N 26°47' W 080°02'0 0.0
2017-Dec-07 23:06N 26°47' W 080°02'0 0.0
2017-Dec-07 22:45N 26°47' W 080°02'0 0.0
2017-Dec-07 22:15N 26°47' W 080°02'0 0.0
2017-Dec-07 21:57N 26°47' W 080°02'0 0.0
2017-Dec-07 21:30N 26°47' W 080°02'0 0.5
2017-Dec-07 20:59N 26°47' W 080°02'917.3
2017-Dec-07 20:30N 26°55' W 079°59'1 2.2
2017-Dec-07 19:59N 26°53' W 079°59'3 6.6
2017-Dec-07 19:28N 26°50' W 079°59'12 3.9
2017-Dec-07 16:18N 26°38' W 080°01'725.2
2017-Dec-07 16:00N 26°45' W 080°01'2 3.4
2017-Dec-07 15:23N 26°47' W 080°02'0 0.0
2017-Dec-07 14:59N 26°47' W 080°02'0 0.0
2017-Dec-07 14:29N 26°47' W 080°02'0 0.0
2017-Dec-07 13:47N 26°47' W 080°02'0 0.0
2017-Dec-07 13:26N 26°47' W 080°02'0 0.0
2017-Dec-07 12:47N 26°47' W 080°02'0 0.0
2017-Dec-07 12:29N 26°47' W 080°02'0 0.0
2017-Dec-07 11:44N 26°47' W 080°02'0 0.0
2017-Dec-07 11:29N 26°47' W 080°02'0 0.0
2017-Dec-07 10:59N 26°47' W 080°02'0 0.0
2017-Dec-07 10:29N 26°47' W 080°02'0 0.0
2017-Dec-07 09:59N 26°47' W 080°02'0 0.0
2017-Dec-07 09:29N 26°47' W 080°02'0 0.0
2017-Dec-07 08:59N 26°47' W 080°02'0 0.0
2017-Dec-07 08:26N 26°47' W 080°02'0 0.0
2017-Dec-07 07:59N 26°47' W 080°02'0 0.0
2017-Dec-07 07:02N 26°47' W 080°02'0 0.0
2017-Dec-07 06:41N 26°47' W 080°02'0 0.0
2017-Dec-07 06:26N 26°47' W 080°02'0 0.0
2017-Dec-07 05:59N 26°47' W 080°02'0 0.0
2017-Dec-07 05:26N 26°47' W 080°02'0 0.0
2017-Dec-07 04:59N 26°47' W 080°02'0 0.0
2017-Dec-07 04:08N 26°47' W 080°02'0 0.0
2017-Dec-07 03:59N 26°47' W 080°02'0 0.0
2017-Dec-07 03:17N 26°47' W 080°02'0 0.0
2017-Dec-07 02:56N 26°47' W 080°02'0 0.0
2017-Dec-07 02:23N 26°47' W 080°02'0 0.0
2017-Dec-07 01:47N 26°47' W 080°02'0 0.0
2017-Dec-07 01:23N 26°47' W 080°02'0 0.0
2017-Dec-07 00:59N 26°47' W 080°02'0 0.0
2017-Dec-07 00:26N 26°47' W 080°02'0 0.0
2017-Dec-06 23:53N 26°47' W 080°02'0 0.0
2017-Dec-06 23:26N 26°47' W 080°02'0 0.0
2017-Dec-06 22:59N 26°47' W 080°02'0 0.0
2017-Dec-06 22:29N 26°47' W 080°02'0 0.0
2017-Dec-06 21:56N 26°47' W 080°02'0 0.0
2017-Dec-06 21:29N 26°47' W 080°02'0 0.0
2017-Dec-06 20:44N 26°47' W 080°02'  
2017-Dec-04 10:09N 26°47' W 080°02'0 0.0
2017-Dec-04 09:57N 26°47' W 080°02'0 0.0
2017-Dec-04 09:27N 26°47' W 080°02'0 0.0
2017-Dec-04 08:48N 26°47' W 080°02'0 0.0
2017-Dec-04 08:12N 26°47' W 080°02'0 0.0
2017-Dec-04 07:33N 26°47' W 080°02'0 0.0
2017-Dec-04 07:27N 26°47' W 080°02'0 0.0
2017-Dec-04 06:57N 26°47' W 080°02'0 0.0
2017-Dec-04 06:30N 26°47' W 080°02'0 0.0
2017-Dec-04 05:54N 26°47' W 080°02'0 0.0
2017-Dec-04 05:30N 26°47' W 080°02'0 0.0
2017-Dec-04 04:57N 26°47' W 080°02'0 0.0
2017-Dec-04 04:24N 26°47' W 080°02'0 0.0
2017-Dec-04 04:00N 26°47' W 080°02'0 0.0
2017-Dec-04 03:27N 26°47' W 080°02'0 0.0
2017-Dec-04 03:00N 26°47' W 080°02'0 0.0
2017-Dec-04 02:30N 26°47' W 080°02'0 0.0
2017-Dec-04 01:54N 26°47' W 080°02'0 0.0
2017-Dec-04 01:30N 26°47' W 080°02'0 0.0
2017-Dec-03 13:39N 26°47' W 080°02'0 0.0
2017-Dec-03 13:09N 26°47' W 080°02'0 0.0
2017-Dec-03 13:00N 26°47' W 080°02'0 0.0
2017-Dec-03 12:30N 26°47' W 080°02'0 0.0
2017-Dec-03 11:54N 26°47' W 080°02'0 0.0
2017-Dec-03 11:30N 26°47' W 080°02'0 0.0
2017-Dec-03 10:48N 26°47' W 080°02'0 0.0
2017-Dec-03 10:30N 26°47' W 080°02'0 0.0
2017-Dec-03 10:00N 26°47' W 080°02'0 0.0
2017-Dec-03 09:30N 26°47' W 080°02'0 0.0
2017-Dec-03 08:57N 26°47' W 080°02'0 0.0
2017-Dec-03 08:30N 26°47' W 080°02'0 0.0
2017-Dec-03 07:48N 26°47' W 080°02'0 0.0
2017-Dec-03 07:27N 26°47' W 080°02'0 0.0
2017-Dec-03 07:00N 26°47' W 080°02'0 0.0
2017-Dec-03 06:30N 26°47' W 080°02'0 0.0
2017-Dec-03 05:45N 26°47' W 080°02'0 0.0
2017-Dec-03 05:30N 26°47' W 080°02'0 0.0
2017-Dec-03 04:57N 26°47' W 080°02'0 0.0
2017-Dec-03 04:27N 26°47' W 080°02'0 0.0
2017-Dec-03 04:00N 26°47' W 080°02'0 0.0
2017-Dec-02 22:03N 26°47' W 080°02'0 0.0
2017-Dec-02 21:45N 26°47' W 080°02'0 0.0
2017-Dec-02 21:06N 26°47' W 080°02'0 0.0
2017-Dec-02 20:54N 26°47' W 080°02'0 0.0
2017-Dec-02 20:30N 26°47' W 080°02'0 0.0
2017-Dec-02 19:48N 26°47' W 080°02'0 0.0
2017-Dec-02 19:30N 26°47' W 080°02'0 0.0
2017-Dec-02 18:57N 26°47' W 080°02'0 0.0
2017-Dec-02 18:15N 26°47' W 080°02'0 0.0
2017-Dec-02 18:00N 26°47' W 080°02'0 0.0
2017-Dec-02 17:30N 26°47' W 080°02'0 0.0
2017-Dec-02 17:00N 26°47' W 080°02'0 0.0
2017-Dec-02 16:30N 26°47' W 080°02'0 0.0
2017-Dec-02 16:00N 26°47' W 080°02'0 0.0
2017-Dec-02 15:30N 26°47' W 080°02'0 0.0
2017-Dec-02 14:54N 26°47' W 080°02'0 0.0
2017-Dec-02 14:27N 26°47' W 080°02'0 0.0
2017-Dec-02 14:00N 26°47' W 080°02'0 0.0
2017-Dec-02 13:18N 26°47' W 080°02'0 0.0
2017-Dec-02 13:00N 26°47' W 080°02'0 0.0
2017-Dec-02 12:24N 26°47' W 080°02'0 0.0
2017-Dec-02 11:57N 26°47' W 080°02'0 0.0
2017-Dec-02 11:30N 26°47' W 080°02'0 0.0
2017-Dec-02 10:54N 26°47' W 080°02'0 0.0
2017-Dec-02 10:30N 26°47' W 080°02'0 0.0
2017-Dec-02 09:54N 26°47' W 080°02'0 0.0
2017-Dec-02 09:27N 26°47' W 080°02'0 0.0
2017-Dec-02 08:57N 26°47' W 080°02'0 0.0
2017-Dec-02 08:30N 26°47' W 080°02'0 0.0
2017-Dec-02 08:00N 26°47' W 080°02'0 0.0
2017-Dec-02 07:27N 26°47' W 080°02'0 0.0
2017-Dec-02 07:00N 26°47' W 080°02'0 0.0
2017-Dec-02 06:30N 26°47' W 080°02'0 0.0
2017-Dec-02 06:00N 26°47' W 080°02'0 0.0
2017-Dec-02 05:24N 26°47' W 080°02'0 0.0
2017-Dec-02 05:00N 26°47' W 080°02'0 0.0
2017-Dec-02 04:30N 26°47' W 080°02'0 0.0
2017-Dec-02 03:48N 26°47' W 080°02'0 0.0
2017-Dec-02 03:30N 26°47' W 080°02'0 0.0
2017-Dec-02 03:00N 26°47' W 080°02'0 0.0
2017-Dec-02 02:18N 26°47' W 080°02'0 0.0
2017-Dec-02 01:54N 26°47' W 080°02'0 0.0
2017-Dec-02 01:30N 26°47' W 080°02'0 0.0
2017-Dec-02 00:57N 26°47' W 080°02'0 0.0
2017-Dec-02 00:15N 26°47' W 080°02'0 0.0
2017-Dec-02 00:00N 26°47' W 080°02'0 0.0
2017-Dec-01 23:30N 26°47' W 080°02'0 0.0
2017-Dec-01 22:54N 26°47' W 080°02'0 0.0
2017-Dec-01 22:30N 26°47' W 080°02'0 0.0
2017-Dec-01 22:00N 26°47' W 080°02'0 0.0
2017-Dec-01 21:30N 26°47' W 080°02'0 0.0
2017-Dec-01 20:33N 26°47' W 080°02'0 0.0
2017-Dec-01 20:30N 26°47' W 080°02'0 0.0
2017-Dec-01 20:00N 26°47' W 080°02'0 0.0
2017-Dec-01 19:27N 26°47' W 080°02'0 0.0
2017-Dec-01 19:00N 26°47' W 080°02'0 0.0
2017-Dec-01 18:30N 26°47' W 080°02'0 0.0
2017-Dec-01 18:00N 26°47' W 080°02'0 0.0
2017-Dec-01 17:18N 26°47' W 080°02'0 0.0
2017-Dec-01 16:48N 26°47' W 080°02'0 0.0
2017-Dec-01 16:15N 26°47' W 080°02'0 0.0
2017-Dec-01 15:57N 26°47' W 080°02'0 0.0
2017-Dec-01 15:30N 26°47' W 080°02'0 0.0
2017-Dec-01 14:48N 26°47' W 080°02'  

Dump ship's entire track history